createdAt,value
2019-04-30T00:00:39.867Z,96.17
2019-04-30T00:01:37.932Z,96.36
2019-04-30T00:02:39.629Z,96.46
2019-04-30T00:03:35.248Z,95.89
2019-04-30T00:04:40.292Z,94.93
2019-04-30T00:05:35.319Z,95.03
2019-04-30T00:06:39.333Z,95.32
2019-04-30T00:07:38.932Z,95.32
2019-04-30T00:08:39.046Z,95.12
2019-04-30T00:09:35.432Z,96.03
2019-04-30T00:10:39.996Z,96.08
2019-04-30T00:11:36.236Z,94.46
2019-04-30T00:12:39.523Z,93.55
2019-04-30T00:14:00.433Z,93.98
2019-04-30T00:14:38.635Z,94.65
2019-04-30T00:15:35.931Z,94.84
2019-04-30T00:16:39.926Z,94.41
2019-04-30T00:18:01.596Z,94.65
2019-04-30T00:18:40.888Z,93.98
2019-04-30T00:19:59.873Z,94.41
2019-04-30T00:20:38.611Z,95.22
2019-04-30T00:21:36.932Z,95.46
2019-04-30T00:22:39.373Z,94.37
2019-04-30T00:23:40.430Z,93.41
2019-04-30T00:26:29.667Z,92.65
2019-04-30T00:27:08.680Z,92.65
2019-04-30T00:28:29.674Z,92.36
2019-04-30T00:29:33.178Z,92.55
2019-04-30T00:31:40.539Z,94.56
2019-04-30T00:32:43.811Z,94.98
2019-04-30T00:33:40.549Z,94.51
2019-04-30T00:34:48.017Z,93.79
2019-04-30T00:35:41.048Z,94.17
2019-04-30T00:36:41.045Z,95.51
2019-04-30T00:37:41.045Z,95.12
2019-04-30T00:38:41.543Z,95.03
2019-04-30T00:39:45.720Z,94.93
2019-04-30T00:40:45.141Z,95.22
2019-04-30T00:41:45.909Z,96.17
2019-04-30T00:42:42.046Z,96.27
2019-04-30T00:43:47.143Z,95.89
2019-04-30T00:45:06.679Z,96.08
2019-04-30T00:45:47.626Z,95.22
2019-04-30T00:46:42.545Z,95.70
2019-04-30T00:47:44.513Z,95.27
2019-04-30T00:48:42.543Z,95.17
2019-04-30T00:49:42.543Z,94.74
2019-04-30T00:51:17.819Z,95.12
2019-04-30T00:51:42.261Z,94.79
2019-04-30T00:54:15.238Z,95.94
2019-04-30T00:55:15.031Z,96.51
2019-04-30T00:56:19.843Z,96.89
2019-04-30T00:58:46.248Z,95.94
2019-04-30T00:59:47.959Z,96.03
2019-04-30T01:00:46.248Z,96.51
2019-04-30T01:01:50.247Z,95.56
2019-04-30T01:03:09.334Z,95.65
2019-04-30T01:03:49.552Z,95.46
2019-04-30T01:05:09.076Z,96.32
2019-04-30T01:06:10.189Z,96.12
2019-04-30T01:06:50.757Z,95.94
2019-04-30T01:08:08.260Z,95.84
2019-04-30T01:08:47.250Z,96.70
2019-04-30T01:09:49.815Z,96.84
2019-04-30T01:11:10.750Z,96.75
2019-04-30T01:11:51.746Z,97.13
2019-04-30T01:12:50.236Z,97.13
2019-04-30T01:13:52.580Z,97.03
2019-04-30T01:15:11.116Z,97.79
2019-04-30T01:15:51.070Z,97.31
2019-04-30T01:16:49.352Z,97.22
2019-04-30T01:17:53.801Z,97.13
2019-04-30T01:19:26.605Z,97.89
2019-04-30T01:19:51.165Z,97.13
2019-04-30T01:20:48.828Z,96.75
2019-04-30T01:21:50.828Z,96.65
2019-04-30T01:22:52.746Z,96.46
2019-04-30T01:24:10.246Z,97.13
2019-04-30T01:24:49.685Z,97.55
2019-04-30T01:25:51.320Z,98.13
2019-04-30T01:26:50.543Z,98.41
2019-04-30T01:27:49.745Z,99.27
2019-04-30T01:28:53.831Z,98.88
2019-04-30T01:29:49.753Z,98.32
2019-04-30T01:30:53.982Z,97.84
2019-04-30T01:31:50.245Z,98.60
2019-04-30T01:32:56.434Z,99.08
2019-04-30T01:33:50.245Z,97.84
2019-04-30T01:34:54.097Z,98.41
2019-04-30T01:35:50.745Z,98.13
2019-04-30T01:36:52.208Z,98.13
2019-04-30T01:37:50.745Z,98.32
2019-04-30T01:38:52.558Z,98.60
2019-04-30T01:39:55.251Z,98.13
2019-04-30T01:40:51.293Z,98.32
2019-04-30T01:41:51.242Z,98.13
2019-04-30T01:44:25.922Z,99.27
2019-04-30T01:45:28.178Z,98.22
2019-04-30T01:46:22.984Z,98.03
2019-04-30T01:48:54.721Z,98.32
2019-04-30T01:49:55.940Z,98.41
2019-04-30T01:50:58.689Z,98.60
2019-04-30T01:51:57.250Z,98.13
2019-04-30T01:52:55.227Z,99.36
2019-04-30T01:53:55.228Z,99.36
2019-04-30T01:54:55.229Z,98.98
2019-04-30T01:55:59.315Z,98.50
2019-04-30T01:56:55.725Z,98.13
2019-04-30T01:57:55.729Z,98.13
2019-04-30T01:58:55.736Z,98.50
2019-04-30T02:01:31.173Z,98.03
2019-04-30T02:02:28.614Z,98.13
2019-04-30T02:03:29.173Z,97.88
2019-04-30T02:04:28.973Z,97.88
2019-04-30T02:05:28.735Z,97.74
2019-04-30T02:06:31.967Z,98.03
2019-04-30T02:07:28.761Z,98.27
2019-04-30T02:08:29.555Z,98.55
2019-04-30T02:09:28.721Z,98.46
2019-04-30T02:10:28.639Z,98.27
2019-04-30T02:11:53.471Z,98.55
2019-04-30T02:12:29.727Z,98.08
2019-04-30T02:13:29.462Z,98.55
2019-04-30T02:14:28.967Z,98.08
2019-04-30T02:15:29.304Z,98.27
2019-04-30T02:16:29.466Z,99.02
2019-04-30T02:17:33.466Z,99.02
2019-04-30T02:18:29.740Z,98.65
2019-04-30T02:19:31.171Z,99.02
2019-04-30T02:20:50.966Z,99.12
2019-04-30T02:21:31.813Z,98.46
2019-04-30T02:22:31.249Z,98.93
2019-04-30T02:23:34.474Z,99.02
2019-04-30T02:24:30.465Z,98.46
2019-04-30T02:27:01.828Z,98.27
2019-04-30T02:28:01.853Z,98.46
2019-04-30T02:29:05.843Z,98.17
2019-04-30T02:31:54.577Z,97.88
2019-04-30T02:32:33.582Z,97.88
2019-04-30T02:33:33.582Z,98.08
2019-04-30T02:34:59.812Z,97.88
2019-04-30T02:35:55.080Z,98.46
2019-04-30T02:36:34.085Z,98.93
2019-04-30T02:37:35.555Z,98.60
2019-04-30T02:38:34.584Z,99.12
2019-04-30T02:39:40.165Z,99.02
2019-04-30T02:40:34.589Z,98.65
2019-04-30T02:41:34.585Z,98.83
2019-04-30T02:42:36.057Z,98.03
2019-04-30T02:43:35.084Z,97.93
2019-04-30T02:44:40.654Z,98.03
2019-04-30T02:45:35.080Z,97.83
2019-04-30T02:48:29.491Z,97.93
2019-04-30T02:49:06.823Z,97.93
2019-04-30T02:50:18.153Z,98.03
2019-04-30T02:52:40.199Z,97.64
2019-04-30T02:53:40.227Z,97.64
2019-04-30T02:54:39.589Z,97.83
2019-04-30T02:55:44.496Z,97.64
2019-04-30T02:57:00.065Z,97.36
2019-04-30T02:57:40.065Z,97.74
2019-04-30T02:58:40.979Z,98.41
2019-04-30T02:59:40.259Z,98.41
2019-04-30T03:00:39.561Z,97.83
2019-04-30T03:02:04.090Z,98.41
2019-04-30T03:02:39.657Z,98.79
2019-04-30T03:03:42.659Z,99.64
2019-04-30T03:04:42.061Z,99.55
2019-04-30T03:05:40.060Z,99.64
2019-04-30T03:07:05.061Z,99.99
2019-04-30T03:08:01.561Z,99.93
2019-04-30T03:08:42.495Z,99.26
2019-04-30T03:09:40.564Z,99.07
2019-04-30T03:10:40.613Z,99.16
2019-04-30T03:11:41.193Z,98.88
2019-04-30T03:12:44.058Z,98.60
2019-04-30T03:13:42.802Z,98.88
2019-04-30T03:14:41.061Z,98.97
2019-04-30T03:15:42.502Z,98.88
2019-04-30T03:16:41.561Z,98.41
2019-04-30T03:18:06.060Z,98.22
2019-04-30T03:18:41.560Z,98.22
2019-04-30T03:19:41.577Z,98.97
2019-04-30T03:20:42.069Z,98.22
2019-04-30T03:22:05.494Z,97.64
2019-04-30T03:22:42.065Z,97.93
2019-04-30T03:23:46.062Z,98.03
2019-04-30T03:24:43.082Z,97.93
2019-04-30T03:25:42.559Z,98.50
2019-04-30T03:26:42.564Z,98.41
2019-04-30T03:27:42.677Z,99.02
2019-04-30T03:28:43.069Z,99.69
2019-04-30T03:29:46.058Z,99.11
2019-04-30T03:30:43.060Z,98.36
2019-04-30T03:31:45.375Z,97.60
2019-04-30T03:32:45.419Z,98.17
2019-04-30T03:33:43.613Z,97.88
2019-04-30T03:34:51.658Z,98.26
2019-04-30T03:35:48.242Z,98.60
2019-04-30T03:37:06.016Z,98.74
2019-04-30T03:37:44.059Z,98.45
2019-04-30T03:38:44.075Z,97.88
2019-04-30T03:39:49.352Z,98.36
2019-04-30T03:40:44.058Z,98.17
2019-04-30T03:42:05.558Z,98.17
2019-04-30T03:44:21.795Z,97.97
2019-04-30T03:45:20.412Z,98.17
2019-04-30T03:46:15.936Z,98.07
2019-04-30T03:47:16.441Z,98.26
2019-04-30T03:48:16.430Z,97.97
2019-04-30T03:49:16.435Z,98.26
2019-04-30T03:50:20.431Z,98.45
2019-04-30T03:52:50.351Z,97.97
2019-04-30T03:53:50.090Z,97.78
2019-04-30T03:54:49.557Z,97.97
2019-04-30T03:56:14.172Z,97.78
2019-04-30T03:56:50.220Z,97.41
2019-04-30T03:57:51.939Z,97.78
2019-04-30T03:58:50.293Z,97.78
2019-04-30T03:59:50.062Z,97.22
2019-04-30T04:00:50.267Z,97.41
2019-04-30T04:01:54.135Z,97.60
2019-04-30T04:02:50.173Z,97.60
2019-04-30T04:03:50.175Z,97.50
2019-04-30T04:04:52.592Z,97.69
2019-04-30T04:05:51.646Z,97.60
2019-04-30T04:06:54.172Z,97.50
2019-04-30T04:07:53.179Z,97.41
2019-04-30T04:08:50.671Z,97.22
2019-04-30T04:09:50.678Z,97.22
2019-04-30T04:10:53.021Z,97.78
2019-04-30T04:11:52.604Z,97.78
2019-04-30T04:12:54.168Z,97.88
2019-04-30T04:13:51.167Z,97.97
2019-04-30T04:14:51.339Z,98.07
2019-04-30T04:15:51.168Z,97.78
2019-04-30T04:16:54.603Z,97.88
2019-04-30T04:18:16.168Z,97.97
2019-04-30T04:18:51.677Z,97.69
2019-04-30T04:19:51.668Z,97.22
2019-04-30T04:21:07.084Z,97.97
2019-04-30T04:21:52.169Z,97.55
2019-04-30T04:26:20.411Z,98.07
2019-04-30T04:26:59.790Z,97.88
2019-04-30T04:28:04.859Z,98.07
2019-04-30T04:30:31.087Z,97.78
2019-04-30T04:31:31.108Z,98.26
2019-04-30T04:32:31.366Z,99.11
2019-04-30T04:33:56.095Z,98.93
2019-04-30T04:34:31.595Z,99.02
2019-04-30T04:35:31.595Z,97.97
2019-04-30T04:36:31.594Z,97.88
2019-04-30T04:37:53.098Z,97.60
2019-04-30T04:38:56.594Z,97.78
2019-04-30T04:39:32.103Z,97.78
2019-04-30T04:40:32.095Z,98.07
2019-04-30T04:41:53.609Z,98.17
2019-04-30T04:42:53.598Z,97.97
2019-04-30T04:43:32.604Z,98.36
2019-04-30T04:44:36.598Z,98.45
2019-04-30T04:45:55.566Z,97.31
2019-04-30T04:47:00.232Z,97.41
2019-04-30T04:47:54.096Z,97.22
2019-04-30T04:48:33.095Z,97.41
2019-04-30T04:49:36.592Z,97.60
2019-04-30T04:50:35.593Z,98.17
2019-04-30T04:51:38.545Z,98.36
2019-04-30T04:52:33.600Z,98.07
2019-04-30T04:55:10.030Z,98.26
2019-04-30T04:56:05.332Z,98.26
2019-04-30T04:57:14.824Z,97.88
2019-04-30T04:58:26.831Z,97.78
2019-04-30T04:59:26.831Z,97.78
2019-04-30T05:00:11.771Z,97.41
2019-04-30T05:01:28.826Z,98.17
2019-04-30T05:02:32.192Z,97.78
2019-04-30T05:03:06.335Z,97.88
2019-04-30T05:04:06.341Z,97.78
2019-04-30T05:05:31.850Z,97.78
2019-04-30T05:06:06.830Z,97.69
2019-04-30T05:07:06.830Z,98.17
2019-04-30T05:08:08.458Z,98.26
2019-04-30T05:09:06.831Z,98.55
2019-04-30T05:10:31.838Z,98.17
2019-04-30T05:11:09.573Z,98.55
2019-04-30T05:12:09.330Z,98.03
2019-04-30T05:13:09.085Z,99.07
2019-04-30T05:14:08.382Z,98.55
2019-04-30T05:15:09.467Z,99.02
2019-04-30T05:16:32.840Z,99.16
2019-04-30T05:17:09.450Z,99.26
2019-04-30T05:18:09.136Z,98.79
2019-04-30T05:19:32.284Z,98.12
2019-04-30T05:21:44.832Z,98.60
2019-04-30T05:22:39.653Z,99.26
2019-04-30T05:23:42.616Z,99.16
2019-04-30T05:24:40.864Z,99.26
2019-04-30T05:25:40.160Z,98.97
2019-04-30T05:26:40.153Z,98.79
2019-04-30T05:27:44.152Z,99.07
2019-04-30T05:28:40.653Z,98.88
2019-04-30T05:29:43.605Z,97.93
2019-04-30T05:30:40.658Z,98.03
2019-04-30T05:31:40.655Z,98.03
2019-04-30T05:32:41.155Z,98.22
2019-04-30T05:33:44.160Z,98.36
2019-04-30T05:34:41.159Z,98.46
2019-04-30T05:35:41.153Z,98.08
2019-04-30T05:36:41.653Z,98.17
2019-04-30T05:37:41.653Z,98.17
2019-04-30T05:39:08.277Z,98.46
2019-04-30T05:39:41.651Z,98.08
2019-04-30T05:40:42.668Z,98.27
2019-04-30T05:41:42.153Z,97.88
2019-04-30T05:42:42.152Z,97.88
2019-04-30T05:43:45.650Z,98.08
2019-04-30T05:44:42.654Z,97.69
2019-04-30T05:45:42.661Z,97.69
2019-04-30T05:46:42.652Z,97.88
2019-04-30T05:47:42.652Z,97.60
2019-04-30T05:49:08.999Z,97.88
2019-04-30T05:49:42.374Z,98.08
2019-04-30T05:50:43.157Z,98.08
2019-04-30T05:51:52.865Z,97.88
2019-04-30T05:52:43.587Z,97.69
2019-04-30T05:53:44.152Z,98.08
2019-04-30T05:54:48.600Z,97.74
2019-04-30T05:55:43.652Z,97.84
2019-04-30T05:56:43.651Z,97.74
2019-04-30T05:57:53.889Z,97.46
2019-04-30T05:58:44.089Z,97.74
2019-04-30T05:59:49.086Z,98.03
2019-04-30T06:00:44.152Z,97.46
2019-04-30T06:01:48.699Z,95.94
2019-04-30T06:02:46.651Z,94.42
2019-04-30T06:03:44.651Z,93.84
2019-04-30T06:04:44.656Z,92.32
2019-04-30T06:06:11.463Z,91.94
2019-04-30T06:06:45.151Z,90.80
2019-04-30T06:07:45.151Z,90.22
2019-04-30T06:08:45.151Z,92.84
2019-04-30T06:09:45.653Z,92.65
2019-04-30T06:12:18.779Z,91.79
2019-04-30T06:13:18.914Z,91.79
2019-04-30T06:14:48.688Z,89.51
2019-04-30T06:15:19.361Z,85.60
2019-04-30T06:16:41.513Z,84.94
2019-04-30T06:19:10.006Z,87.51
2019-04-30T06:19:51.455Z,87.13
2019-04-30T06:20:49.011Z,87.23
2019-04-30T06:22:04.833Z,87.65
2019-04-30T06:23:10.509Z,84.75
2019-04-30T06:25:56.423Z,82.18
2019-04-30T06:26:20.816Z,81.41
2019-04-30T06:27:25.005Z,81.51
2019-04-30T06:28:21.004Z,81.60
2019-04-30T06:29:21.506Z,81.51
2019-04-30T06:30:42.508Z,79.70
2019-04-30T06:31:31.802Z,81.17
2019-04-30T06:32:22.965Z,82.12
2019-04-30T06:33:25.005Z,81.65
2019-04-30T06:34:22.005Z,82.21
2019-04-30T06:35:22.031Z,83.07
2019-04-30T06:36:22.005Z,83.26
2019-04-30T06:37:22.005Z,79.55
2019-04-30T06:38:26.004Z,78.88
2019-04-30T06:39:43.506Z,79.07
2019-04-30T06:40:22.504Z,78.03
2019-04-30T06:41:43.504Z,79.46
2019-04-30T06:42:44.004Z,79.49
2019-04-30T06:43:29.023Z,81.12
2019-04-30T06:44:37.254Z,79.11
2019-04-30T06:45:25.967Z,77.55
2019-04-30T06:46:44.515Z,77.69
2019-04-30T06:48:54.744Z,79.30
2019-04-30T06:50:01.320Z,79.11
2019-04-30T06:52:26.459Z,77.49
2019-04-30T06:53:26.467Z,76.16
2019-04-30T06:54:28.637Z,75.68
2019-04-30T06:55:51.467Z,76.25
2019-04-30T06:58:11.181Z,75.24
2019-04-30T06:58:59.008Z,74.10
2019-04-30T07:00:20.826Z,75.05
2019-04-30T07:01:25.275Z,75.53
2019-04-30T07:01:59.057Z,76.20
2019-04-30T07:02:59.139Z,75.43
2019-04-30T07:04:00.882Z,75.91
2019-04-30T07:04:59.340Z,74.67
2019-04-30T07:06:02.844Z,76.23
2019-04-30T07:06:59.352Z,74.52
2019-04-30T07:08:04.315Z,73.37
2019-04-30T07:09:20.847Z,72.71
2019-04-30T07:10:01.194Z,72.23
2019-04-30T07:11:07.435Z,72.42
2019-04-30T07:12:04.867Z,71.37
2019-04-30T07:13:21.340Z,71.94
2019-04-30T07:14:00.350Z,71.94
2019-04-30T07:15:21.343Z,70.61
2019-04-30T07:16:00.338Z,69.74
2019-04-30T07:17:25.350Z,68.41
2019-04-30T07:18:14.840Z,67.55
2019-04-30T07:19:00.847Z,69.46
2019-04-30T07:20:00.188Z,72.42
2019-04-30T07:21:00.840Z,71.84
2019-04-30T07:22:40.121Z,69.97
2019-04-30T07:23:04.274Z,68.82
2019-04-30T07:24:22.361Z,67.40
2019-04-30T07:25:01.360Z,68.35
2019-04-30T07:26:02.796Z,67.40
2019-04-30T07:28:44.695Z,67.40
2019-04-30T07:29:33.049Z,65.77
2019-04-30T07:30:33.047Z,67.49
2019-04-30T07:33:25.785Z,69.05
2019-04-30T07:34:31.713Z,68.19
2019-04-30T07:35:04.791Z,67.21
2019-04-30T07:36:05.297Z,66.66
2019-04-30T07:37:26.326Z,67.91
2019-04-30T07:38:05.291Z,68.00
2019-04-30T07:39:10.072Z,67.33
2019-04-30T07:41:37.027Z,68.19
2019-04-30T07:42:43.933Z,68.29
2019-04-30T07:43:39.310Z,67.33
2019-04-30T07:44:41.035Z,67.05
2019-04-30T07:45:39.738Z,69.05
2019-04-30T07:46:43.852Z,68.00
2019-04-30T07:47:39.479Z,67.33
2019-04-30T07:48:39.962Z,63.07
2019-04-30T07:50:02.543Z,64.31
2019-04-30T07:52:34.236Z,65.11
2019-04-30T07:53:11.297Z,64.59
2019-04-30T07:54:30.283Z,63.16
2019-04-30T07:55:12.783Z,63.07
2019-04-30T07:56:37.233Z,64.69
2019-04-30T07:57:11.244Z,65.30
2019-04-30T07:58:09.783Z,63.48
2019-04-30T07:59:33.289Z,64.72
2019-04-30T08:00:35.284Z,62.90
2019-04-30T08:01:12.283Z,63.39
2019-04-30T08:02:14.349Z,61.95
2019-04-30T08:04:42.023Z,64.53
2019-04-30T08:05:45.591Z,62.24
2019-04-30T08:06:42.069Z,60.71
2019-04-30T08:07:42.553Z,60.42
2019-04-30T08:08:42.568Z,61.47
2019-04-30T08:09:42.603Z,60.99
2019-04-30T08:10:42.538Z,60.61
2019-04-30T08:11:46.525Z,60.42
2019-04-30T08:13:09.984Z,61.66
2019-04-30T08:13:43.490Z,60.80
2019-04-30T08:14:43.042Z,61.60
2019-04-30T08:17:39.292Z,59.01
2019-04-30T08:18:14.787Z,58.15
2019-04-30T08:19:14.793Z,58.15
2019-04-30T08:21:48.580Z,58.92
2019-04-30T08:22:51.052Z,58.92
2019-04-30T08:23:48.816Z,57.68
2019-04-30T08:24:49.121Z,54.90
2019-04-30T08:25:48.829Z,55.76
2019-04-30T08:27:09.776Z,56.53
2019-04-30T08:27:49.289Z,56.15
2019-04-30T08:28:51.046Z,59.59
2019-04-30T08:30:21.436Z,58.83
2019-04-30T08:30:54.042Z,59.20
2019-04-30T08:31:48.987Z,59.69
2019-04-30T08:32:49.996Z,57.97
2019-04-30T08:33:52.038Z,55.10
2019-04-30T08:34:50.154Z,53.85
2019-04-30T08:35:49.944Z,53.47
2019-04-30T08:36:48.878Z,52.99
2019-04-30T08:37:49.743Z,55.76
2019-04-30T08:38:49.635Z,56.72
2019-04-30T08:39:53.040Z,55.76
2019-04-30T08:40:56.244Z,55.86
2019-04-30T08:41:49.540Z,57.90
2019-04-30T08:42:49.771Z,57.80
2019-04-30T08:43:49.817Z,55.88
2019-04-30T08:44:49.541Z,54.90
2019-04-30T08:45:53.042Z,53.78
2019-04-30T08:48:21.409Z,56.27
2019-04-30T08:49:21.607Z,56.56
2019-04-30T08:50:21.688Z,53.11
2019-04-30T08:51:25.934Z,53.59
2019-04-30T08:52:21.959Z,54.36
2019-04-30T08:53:42.914Z,55.98
2019-04-30T08:54:21.922Z,53.20
2019-04-30T08:55:43.416Z,52.95
2019-04-30T08:56:22.432Z,50.91
2019-04-30T08:57:25.920Z,51.77
2019-04-30T08:58:22.415Z,51.58
2019-04-30T08:59:22.926Z,52.54
2019-04-30T09:00:22.913Z,51.99
2019-04-30T09:01:22.915Z,53.91
2019-04-30T09:02:28.865Z,54.00
2019-04-30T09:03:44.415Z,52.75
2019-04-30T09:04:23.415Z,52.85
2019-04-30T09:05:44.415Z,53.33
2019-04-30T09:06:23.421Z,53.71
2019-04-30T09:07:48.741Z,52.95
2019-04-30T09:08:44.915Z,51.89
2019-04-30T09:09:44.915Z,50.56
2019-04-30T09:10:44.915Z,51.54
2019-04-30T09:12:59.918Z,51.25
2019-04-30T09:13:55.672Z,50.00
2019-04-30T09:16:29.343Z,49.52
2019-04-30T09:17:29.596Z,50.00
2019-04-30T09:18:33.352Z,49.07
2019-04-30T09:19:49.141Z,48.88
2019-04-30T09:22:02.229Z,48.97
2019-04-30T09:22:59.645Z,51.75
2019-04-30T09:24:02.802Z,49.65
2019-04-30T09:25:20.795Z,49.45
2019-04-30T09:26:23.230Z,49.93
2019-04-30T09:26:59.795Z,49.36
2019-04-30T09:27:59.799Z,48.78
2019-04-30T09:29:04.299Z,48.69
2019-04-30T09:30:00.296Z,48.43
2019-04-30T09:31:00.297Z,48.61
2019-04-30T09:32:00.304Z,45.81
2019-04-30T09:33:23.230Z,45.62
2019-04-30T09:34:01.143Z,46.00
2019-04-30T09:36:35.511Z,47.34
2019-04-30T09:37:35.509Z,46.58
2019-04-30T09:38:35.509Z,45.93
2019-04-30T09:39:36.009Z,47.27
2019-04-30T09:40:41.619Z,44.30
2019-04-30T09:43:08.947Z,46.22
2019-04-30T09:44:10.016Z,48.52
2019-04-30T09:45:08.999Z,45.16
2019-04-30T09:46:19.146Z,47.56
2019-04-30T09:47:08.869Z,47.46
2019-04-30T09:49:41.403Z,44.59
2019-04-30T09:50:39.685Z,45.36
2019-04-30T09:52:09.053Z,45.54
2019-04-30T09:52:42.421Z,45.26
2019-04-30T09:53:40.446Z,45.54
2019-04-30T09:56:11.391Z,45.93
2019-04-30T09:57:15.396Z,48.43
2019-04-30T09:58:17.211Z,49.21
2019-04-30T09:59:13.898Z,46.05
2019-04-30T10:00:11.900Z,44.61
2019-04-30T10:01:11.900Z,45.37
2019-04-30T10:02:15.899Z,46.62
2019-04-30T10:03:12.709Z,47.01
2019-04-30T10:04:13.660Z,45.28
2019-04-30T10:05:13.053Z,46.72
2019-04-30T10:06:12.398Z,44.61
2019-04-30T10:07:12.904Z,45.09
2019-04-30T10:09:50.706Z,48.47
2019-04-30T10:10:48.643Z,43.67
2019-04-30T10:11:49.850Z,45.30
2019-04-30T10:13:09.594Z,44.63
2019-04-30T10:13:52.099Z,45.21
2019-04-30T10:14:49.476Z,45.01
2019-04-30T10:15:50.197Z,44.82
2019-04-30T10:18:20.352Z,42.33
2019-04-30T10:22:47.318Z,45.86
2019-04-30T10:23:47.327Z,44.51
2019-04-30T10:24:49.308Z,44.03
2019-04-30T10:25:51.331Z,43.74
2019-04-30T10:27:13.084Z,44.15
2019-04-30T10:27:47.333Z,45.01
2019-04-30T10:28:49.260Z,45.11
2019-04-30T10:29:47.043Z,44.56
2019-04-30T10:30:52.261Z,45.01
2019-04-30T10:31:51.325Z,41.27
2019-04-30T10:33:10.004Z,44.15
2019-04-30T10:33:49.263Z,44.56
2019-04-30T10:34:48.326Z,43.48
2019-04-30T10:35:49.569Z,43.00
2019-04-30T10:36:52.329Z,43.17
2019-04-30T10:37:48.825Z,43.74
2019-04-30T10:38:59.550Z,42.50
2019-04-30T10:39:50.269Z,42.52
2019-04-30T10:43:55.466Z,42.93
2019-04-30T10:44:55.474Z,42.54
2019-04-30T10:45:55.474Z,43.88
2019-04-30T10:48:31.231Z,45.25
2019-04-30T10:49:29.102Z,44.10
2019-04-30T10:50:27.250Z,43.23
2019-04-30T10:51:49.710Z,43.04
2019-04-30T10:52:29.249Z,42.47
2019-04-30T10:53:27.737Z,40.93
2019-04-30T10:54:31.236Z,41.70
2019-04-30T10:55:49.236Z,41.79
2019-04-30T10:56:29.121Z,42.37
2019-04-30T10:57:29.708Z,44.58
2019-04-30T10:58:28.259Z,44.51
2019-04-30T10:59:32.236Z,43.71
2019-04-30T11:00:28.742Z,44.99
2019-04-30T11:01:29.172Z,45.18
2019-04-30T11:02:31.128Z,44.70
2019-04-30T11:03:29.238Z,43.54
2019-04-30T11:04:53.785Z,42.39
2019-04-30T11:05:29.333Z,43.54
2019-04-30T11:06:29.234Z,44.22
2019-04-30T11:07:29.242Z,42.39
2019-04-30T11:08:28.840Z,41.43
2019-04-30T11:09:50.743Z,40.95
2019-04-30T11:10:33.236Z,41.62
2019-04-30T11:11:30.660Z,43.45
2019-04-30T11:12:51.238Z,44.60
2019-04-30T11:13:51.237Z,44.60
2019-04-30T11:14:30.237Z,43.43
2019-04-30T11:15:54.737Z,43.81
2019-04-30T11:16:51.945Z,44.10
2019-04-30T11:17:33.015Z,44.58
2019-04-30T11:18:30.943Z,44.02
2019-04-30T11:19:30.932Z,41.24
2019-04-30T11:20:59.621Z,44.22
2019-04-30T11:21:31.351Z,44.12
2019-04-30T11:22:31.474Z,44.12
2019-04-30T11:23:31.357Z,43.26
2019-04-30T11:24:38.176Z,43.84
2019-04-30T11:25:31.775Z,41.33
2019-04-30T11:26:36.092Z,40.97
2019-04-30T11:27:32.035Z,42.60
2019-04-30T11:28:32.479Z,42.50
2019-04-30T11:29:32.492Z,41.16
2019-04-30T11:30:32.458Z,40.89
2019-04-30T11:31:32.491Z,39.83
2019-04-30T11:32:35.907Z,39.95
2019-04-30T11:33:32.983Z,39.59
2019-04-30T11:34:32.739Z,38.74
2019-04-30T11:35:32.739Z,35.08
2019-04-30T11:36:33.236Z,35.77
2019-04-30T11:39:29.830Z,36.27
2019-04-30T11:40:09.929Z,36.36
2019-04-30T11:41:32.898Z,36.77
2019-04-30T11:43:46.256Z,34.76
2019-04-30T11:44:41.696Z,35.26
2019-04-30T11:45:40.761Z,34.60
2019-04-30T11:46:40.762Z,33.55
2019-04-30T11:48:02.262Z,32.20
2019-04-30T11:48:41.264Z,33.37
2019-04-30T11:49:45.264Z,33.09
2019-04-30T11:50:41.262Z,32.21
2019-04-30T11:54:54.120Z,31.15
2019-04-30T11:55:46.483Z,32.81
2019-04-30T11:56:44.479Z,32.52
2019-04-30T11:57:46.980Z,31.94
2019-04-30T11:59:08.686Z,31.46
2019-04-30T11:59:44.977Z,30.79
2019-04-30T12:00:49.498Z,30.78
2019-04-30T12:01:46.442Z,30.42
2019-04-30T12:02:46.436Z,30.63
2019-04-30T12:03:45.478Z,29.85
2019-04-30T12:04:45.484Z,28.89
2019-04-30T12:05:49.485Z,27.92
2019-04-30T12:06:46.013Z,28.87
2019-04-30T12:07:45.979Z,29.47
2019-04-30T12:08:45.978Z,29.47
2019-04-30T12:11:21.255Z,30.62
2019-04-30T12:12:18.960Z,30.73
2019-04-30T12:13:38.753Z,30.94
2019-04-30T12:14:40.700Z,30.47
2019-04-30T12:15:40.190Z,30.37
2019-04-30T12:16:18.669Z,30.19
2019-04-30T12:17:22.254Z,30.09
2019-04-30T12:18:19.688Z,28.25
2019-04-30T12:20:50.516Z,29.51
2019-04-30T12:23:25.420Z,28.54
2019-04-30T12:24:21.919Z,28.23
2019-04-30T12:25:21.919Z,28.14
2019-04-30T12:26:43.483Z,29.61
2019-04-30T12:27:23.855Z,30.37
2019-04-30T12:28:29.620Z,29.60
2019-04-30T12:29:22.430Z,28.53
2019-04-30T12:30:24.360Z,29.11
2019-04-30T12:31:24.862Z,29.21
2019-04-30T12:32:22.918Z,30.77
2019-04-30T12:33:22.923Z,29.35
2019-04-30T12:34:46.665Z,29.62
2019-04-30T12:36:54.807Z,28.36
2019-04-30T12:37:54.813Z,29.52
2019-04-30T12:38:54.813Z,30.30
2019-04-30T12:40:02.748Z,28.83
2019-04-30T12:40:55.316Z,28.34
2019-04-30T12:41:55.323Z,30.01
2019-04-30T12:42:55.318Z,29.54
2019-04-30T12:43:55.814Z,29.43
2019-04-30T12:44:55.816Z,29.93
2019-04-30T12:46:03.373Z,28.47
2019-04-30T12:46:55.818Z,28.18
2019-04-30T12:48:20.029Z,27.90
2019-04-30T12:48:56.543Z,26.92
2019-04-30T12:49:56.314Z,27.98
2019-04-30T12:52:31.563Z,27.47
2019-04-30T12:53:31.569Z,28.20
2019-04-30T12:54:31.569Z,29.66
2019-04-30T12:55:53.069Z,30.13
2019-04-30T12:56:35.571Z,30.51
2019-04-30T12:57:32.079Z,30.69
2019-04-30T12:58:32.070Z,30.13
2019-04-30T12:59:32.569Z,30.32
2019-04-30T13:00:32.571Z,30.54
2019-04-30T13:01:59.225Z,30.65
2019-04-30T13:02:32.571Z,29.40
2019-04-30T13:03:58.691Z,29.41
2019-04-30T13:04:33.070Z,28.45
2019-04-30T13:05:34.009Z,29.32
2019-04-30T13:06:33.532Z,29.72
2019-04-30T13:07:39.734Z,28.28
2019-04-30T13:08:33.822Z,29.88
2019-04-30T13:09:34.131Z,29.77
2019-04-30T13:10:55.230Z,29.41
2019-04-30T13:11:36.546Z,28.25
2019-04-30T13:12:38.674Z,28.45
2019-04-30T13:13:34.467Z,28.34
2019-04-30T13:14:36.953Z,29.02
2019-04-30T13:15:55.574Z,28.64
2019-04-30T13:16:55.569Z,30.09
2019-04-30T13:17:34.573Z,30.30
2019-04-30T13:18:39.371Z,29.04
2019-04-30T13:19:56.070Z,29.41
2019-04-30T13:22:09.322Z,29.30
2019-04-30T13:23:27.474Z,29.71
2019-04-30T13:24:10.534Z,28.15
2019-04-30T13:25:06.976Z,27.87
2019-04-30T13:26:08.977Z,27.37
2019-04-30T13:27:06.972Z,27.18
2019-04-30T13:29:42.241Z,26.82
2019-04-30T13:30:39.613Z,27.59
2019-04-30T13:31:59.753Z,27.89
2019-04-30T13:33:00.293Z,27.98
2019-04-30T13:33:40.460Z,28.55
2019-04-30T13:34:39.678Z,28.34
2019-04-30T13:35:42.549Z,28.36
2019-04-30T13:38:13.052Z,28.38
2019-04-30T13:39:11.082Z,28.00
2019-04-30T13:40:32.578Z,28.38
2019-04-30T13:42:46.304Z,28.39
2019-04-30T13:43:48.676Z,27.98
2019-04-30T13:44:46.813Z,29.79
2019-04-30T13:45:48.623Z,29.41
2019-04-30T13:46:50.313Z,26.82
2019-04-30T13:47:48.774Z,26.93
2019-04-30T13:48:47.309Z,27.32
2019-04-30T13:49:49.410Z,26.36
2019-04-30T13:50:47.311Z,25.59
2019-04-30T13:52:11.812Z,24.43
2019-04-30T13:52:49.746Z,24.43
2019-04-30T13:53:47.814Z,24.97
2019-04-30T13:54:47.812Z,26.22
2019-04-30T13:55:48.928Z,26.50
2019-04-30T13:56:51.812Z,27.93
2019-04-30T13:57:48.311Z,28.39
2019-04-30T13:58:48.317Z,30.78
2019-04-30T13:59:50.897Z,30.76
2019-04-30T14:00:50.823Z,31.26
2019-04-30T14:01:53.746Z,30.79
2019-04-30T14:02:52.830Z,29.95
2019-04-30T14:03:48.944Z,29.10
2019-04-30T14:04:49.312Z,28.14
2019-04-30T14:06:10.312Z,28.23
2019-04-30T14:06:49.313Z,28.64
2019-04-30T14:07:49.762Z,27.86
2019-04-30T14:10:24.214Z,27.92
2019-04-30T14:11:24.223Z,29.33
2019-04-30T14:12:24.219Z,30.52
2019-04-30T14:14:59.991Z,29.57
2019-04-30T14:15:55.996Z,29.84
2019-04-30T14:17:18.919Z,29.52
2019-04-30T14:17:56.497Z,30.49
2019-04-30T14:18:58.501Z,30.69
2019-04-30T14:20:04.432Z,30.52
2019-04-30T14:21:01.042Z,30.34
2019-04-30T14:23:49.532Z,29.85
2019-04-30T14:24:49.316Z,29.37
2019-04-30T14:25:56.346Z,28.61
2019-04-30T14:26:32.778Z,27.93
2019-04-30T14:27:54.489Z,28.25
2019-04-30T14:28:49.774Z,28.65
2019-04-30T14:29:49.546Z,27.57